
<gpx xmlns="http://www.topografix.com/GPX/1/1" xmlns:gpxx="http://www.garmin.com/xmlschemas/GpxExtensions/v3" xmlns:xsi="http://www.w3.org/2001/XMLSchema-instance" version="1.1" creator="Adze - http://kobotsw.com/apps/adze" xsi:schemaLocation="http://www.topografix.com/GPX/1/1 http://www.topografix.com/GPX/1/1/gpx.xsd http://www.garmin.com/xmlschemas/GpxExtensions/v3 http://www.garmin.com/xmlschemas/GpxExtensionsv3.xsd">
    <metadata>
        <name>Untitled Document</name>
        <link href="http://www.garmin.com"></link>
        <time>2018-02-26T07:44:24.030Z</time>
    </metadata>
    <wpt lon="100.974514" lat="12.905974">
        <ele>59.000000</ele>
        <name>Horseshoe Point</name>
        <cmt>23-MAR-13 12:54:25</cmt>
        <desc>23-MAR-13 12:54:25</desc>
        <sym>Lodging</sym>
        <extensions>
            <gpxx:WaypointExtension xmlns:gpxx="http://www.garmin.com/xmlschemas/GpxExtensions/v3">
                <gpxx:DisplayMode>SymbolOnly</gpxx:DisplayMode>
            </gpxx:WaypointExtension>
        </extensions>
    </wpt>
    <wpt lon="101.023523" lat="12.883894">
        <time>2013-03-23T11:56:09Z</time>
        <name>Water Saturday</name>
        <sym>Drinking Water</sym>
        <extensions>
            <gpxx:WaypointExtension xmlns:gpxx="http://www.garmin.com/xmlschemas/GpxExtensions/v3">
                <gpxx:DisplayMode>SymbolOnly</gpxx:DisplayMode>
            </gpxx:WaypointExtension>
        </extensions>
    </wpt>
    <trk>
        <name>Saturday</name>
        <extensions>
            <gpxx:TrackExtension xmlns:gpxx="http://www.garmin.com/xmlschemas/GpxExtensions/v3">
                <gpxx:DisplayColor>Red</gpxx:DisplayColor>
            </gpxx:TrackExtension>
        </extensions>
        <trkseg>
            <trkpt lon="100.974503" lat="12.906084">
                <ele>70.790000</ele>
                <time>2013-03-23T06:02:12Z</time>
            </trkpt>
            <trkpt lon="100.974998" lat="12.905697">
                <ele>71.760000</ele>
                <time>2013-03-23T06:02:42Z</time>
            </trkpt>
            <trkpt lon="100.975166" lat="12.904819">
                <ele>69.830000</ele>
                <time>2013-03-23T06:03:12Z</time>
            </trkpt>
            <trkpt lon="100.977577" lat="12.904240">
                <ele>72.240000</ele>
                <time>2013-03-23T06:04:12Z</time>
            </trkpt>
            <trkpt lon="100.978470" lat="12.904587">
                <ele>73.680000</ele>
                <time>2013-03-23T06:05:42Z</time>
            </trkpt>
            <trkpt lon="100.978729" lat="12.903728">
                <ele>74.160000</ele>
                <time>2013-03-23T06:06:12Z</time>
            </trkpt>
            <trkpt lon="100.979317" lat="12.903294">
                <ele>75.600000</ele>
                <time>2013-03-23T06:06:42Z</time>
            </trkpt>
            <trkpt lon="100.979622" lat="12.902189">
                <ele>76.080000</ele>
                <time>2013-03-23T06:07:12Z</time>
            </trkpt>
            <trkpt lon="100.980042" lat="12.900676">
                <ele>72.720000</ele>
                <time>2013-03-23T06:07:42Z</time>
            </trkpt>
            <trkpt lon="100.980888" lat="12.900793">
                <ele>73.680000</ele>
                <time>2013-03-23T06:08:12Z</time>
            </trkpt>
            <trkpt lon="100.983414" lat="12.900130">
                <ele>74.640000</ele>
                <time>2013-03-23T06:09:12Z</time>
            </trkpt>
            <trkpt lon="100.985641" lat="12.899546">
                <ele>73.200000</ele>
                <time>2013-03-23T06:10:12Z</time>
            </trkpt>
            <trkpt lon="100.987373" lat="12.899743">
                <ele>70.790000</ele>
                <time>2013-03-23T06:11:12Z</time>
            </trkpt>
            <trkpt lon="100.989525" lat="12.899018">
                <ele>66.950000</ele>
                <time>2013-03-23T06:11:42Z</time>
            </trkpt>
            <trkpt lon="100.990837" lat="12.900072">
                <ele>69.350000</ele>
                <time>2013-03-23T06:12:12Z</time>
            </trkpt>
            <trkpt lon="100.991394" lat="12.901290">
                <ele>72.720000</ele>
                <time>2013-03-23T06:12:42Z</time>
            </trkpt>
            <trkpt lon="100.991638" lat="12.901636">
                <ele>73.200000</ele>
                <time>2013-03-23T06:13:12Z</time>
            </trkpt>
            <trkpt lon="100.991615" lat="12.902461">
                <ele>71.270000</ele>
                <time>2013-03-23T06:13:42Z</time>
            </trkpt>
            <trkpt lon="100.991165" lat="12.902983">
                <ele>69.830000</ele>
                <time>2013-03-23T06:14:12Z</time>
            </trkpt>
            <trkpt lon="100.991272" lat="12.904959">
                <ele>72.720000</ele>
                <time>2013-03-23T06:15:12Z</time>
            </trkpt>
            <trkpt lon="100.990532" lat="12.904970">
                <ele>73.680000</ele>
                <time>2013-03-23T06:15:42Z</time>
            </trkpt>
            <trkpt lon="100.988556" lat="12.905978">
                <ele>79.450000</ele>
                <time>2013-03-23T06:16:42Z</time>
            </trkpt>
            <trkpt lon="100.987518" lat="12.905664">
                <ele>78.970000</ele>
                <time>2013-03-23T06:17:12Z</time>
            </trkpt>
            <trkpt lon="100.986328" lat="12.905972">
                <ele>78.000000</ele>
                <time>2013-03-23T06:17:42Z</time>
            </trkpt>
            <trkpt lon="100.985863" lat="12.906090">
                <ele>76.560000</ele>
                <time>2013-03-23T06:21:12Z</time>
            </trkpt>
            <trkpt lon="100.986328" lat="12.906042">
                <ele>79.930000</ele>
                <time>2013-03-23T06:22:12Z</time>
            </trkpt>
            <trkpt lon="100.987244" lat="12.907390">
                <ele>79.930000</ele>
                <time>2013-03-23T06:23:12Z</time>
            </trkpt>
            <trkpt lon="100.988144" lat="12.908122">
                <ele>80.410000</ele>
                <time>2013-03-23T06:23:42Z</time>
            </trkpt>
            <trkpt lon="100.989395" lat="12.907991">
                <ele>83.290000</ele>
                <time>2013-03-23T06:24:12Z</time>
            </trkpt>
            <trkpt lon="100.989502" lat="12.908110">
                <ele>84.250000</ele>
                <time>2013-03-23T06:24:42Z</time>
            </trkpt>
            <trkpt lon="100.989243" lat="12.909121">
                <ele>82.330000</ele>
                <time>2013-03-23T06:26:12Z</time>
            </trkpt>
            <trkpt lon="100.989319" lat="12.909622">
                <ele>80.410000</ele>
                <time>2013-03-23T06:27:12Z</time>
            </trkpt>
            <trkpt lon="100.989731" lat="12.909908">
                <ele>80.410000</ele>
                <time>2013-03-23T06:28:12Z</time>
            </trkpt>
            <trkpt lon="100.989334" lat="12.910750">
                <ele>78.000000</ele>
                <time>2013-03-23T06:28:42Z</time>
            </trkpt>
            <trkpt lon="100.990692" lat="12.912869">
                <ele>80.890000</ele>
                <time>2013-03-23T06:29:42Z</time>
            </trkpt>
            <trkpt lon="100.991249" lat="12.914130">
                <ele>82.330000</ele>
                <time>2013-03-23T06:30:12Z</time>
            </trkpt>
            <trkpt lon="100.989632" lat="12.916051">
                <ele>90.020000</ele>
                <time>2013-03-23T06:31:12Z</time>
            </trkpt>
            <trkpt lon="100.989525" lat="12.916735">
                <ele>93.390000</ele>
                <time>2013-03-23T06:31:42Z</time>
            </trkpt>
            <trkpt lon="100.990578" lat="12.917166">
                <ele>97.230000</ele>
                <time>2013-03-23T06:32:12Z</time>
            </trkpt>
            <trkpt lon="100.991936" lat="12.917851">
                <ele>98.670000</ele>
                <time>2013-03-23T06:32:42Z</time>
            </trkpt>
            <trkpt lon="100.991852" lat="12.918868">
                <ele>101.080000</ele>
                <time>2013-03-23T06:33:12Z</time>
            </trkpt>
            <trkpt lon="100.991364" lat="12.920404">
                <ele>98.190000</ele>
                <time>2013-03-23T06:33:42Z</time>
            </trkpt>
            <trkpt lon="100.989716" lat="12.924464">
                <ele>87.620000</ele>
                <time>2013-03-23T06:34:42Z</time>
            </trkpt>
            <trkpt lon="100.990639" lat="12.924798">
                <ele>88.100000</ele>
                <time>2013-03-23T06:35:12Z</time>
            </trkpt>
            <trkpt lon="100.992088" lat="12.924508">
                <ele>89.540000</ele>
                <time>2013-03-23T06:35:42Z</time>
            </trkpt>
            <trkpt lon="100.993217" lat="12.925492">
                <ele>90.020000</ele>
                <time>2013-03-23T06:36:12Z</time>
            </trkpt>
            <trkpt lon="100.994514" lat="12.925651">
                <ele>92.420000</ele>
                <time>2013-03-23T06:36:42Z</time>
            </trkpt>
            <trkpt lon="100.996490" lat="12.924510">
                <ele>95.310000</ele>
                <time>2013-03-23T06:37:42Z</time>
            </trkpt>
            <trkpt lon="100.996803" lat="12.924515">
                <ele>95.790000</ele>
                <time>2013-03-23T06:38:42Z</time>
            </trkpt>
            <trkpt lon="100.997910" lat="12.923897">
                <ele>97.710000</ele>
                <time>2013-03-23T06:39:12Z</time>
            </trkpt>
            <trkpt lon="100.999229" lat="12.923701">
                <ele>100.600000</ele>
                <time>2013-03-23T06:39:42Z</time>
            </trkpt>
            <trkpt lon="101.000328" lat="12.923234">
                <ele>104.920000</ele>
                <time>2013-03-23T06:40:12Z</time>
            </trkpt>
            <trkpt lon="100.999817" lat="12.922271">
                <ele>105.880000</ele>
                <time>2013-03-23T06:40:42Z</time>
            </trkpt>
            <trkpt lon="101.000549" lat="12.921089">
                <ele>104.440000</ele>
                <time>2013-03-23T06:41:12Z</time>
            </trkpt>
            <trkpt lon="101.000763" lat="12.919741">
                <ele>99.150000</ele>
                <time>2013-03-23T06:41:42Z</time>
            </trkpt>
            <trkpt lon="101.001259" lat="12.918921">
                <ele>102.040000</ele>
                <time>2013-03-23T06:42:12Z</time>
            </trkpt>
            <trkpt lon="101.003792" lat="12.920639">
                <ele>110.210000</ele>
                <time>2013-03-23T06:43:42Z</time>
            </trkpt>
            <trkpt lon="101.004662" lat="12.920970">
                <ele>114.050000</ele>
                <time>2013-03-23T06:44:12Z</time>
            </trkpt>
            <trkpt lon="101.004883" lat="12.921972">
                <ele>112.130000</ele>
                <time>2013-03-23T06:44:42Z</time>
            </trkpt>
            <trkpt lon="101.005615" lat="12.922290">
                <ele>113.090000</ele>
                <time>2013-03-23T06:45:12Z</time>
            </trkpt>
            <trkpt lon="101.006981" lat="12.923251">
                <ele>117.900000</ele>
                <time>2013-03-23T06:46:12Z</time>
            </trkpt>
            <trkpt lon="101.007645" lat="12.923779">
                <ele>118.380000</ele>
                <time>2013-03-23T06:46:42Z</time>
            </trkpt>
            <trkpt lon="101.008232" lat="12.923880">
                <ele>118.860000</ele>
                <time>2013-03-23T06:47:12Z</time>
            </trkpt>
            <trkpt lon="101.008873" lat="12.923801">
                <ele>121.260000</ele>
                <time>2013-03-23T06:47:42Z</time>
            </trkpt>
            <trkpt lon="101.009659" lat="12.923315">
                <ele>124.630000</ele>
                <time>2013-03-23T06:48:12Z</time>
            </trkpt>
            <trkpt lon="101.010529" lat="12.922763">
                <ele>127.510000</ele>
                <time>2013-03-23T06:48:42Z</time>
            </trkpt>
            <trkpt lon="101.015495" lat="12.919813">
                <ele>123.190000</ele>
                <time>2013-03-23T06:50:42Z</time>
            </trkpt>
            <trkpt lon="101.015778" lat="12.919111">
                <ele>125.590000</ele>
                <time>2013-03-23T06:51:12Z</time>
            </trkpt>
            <trkpt lon="101.014900" lat="12.917889">
                <ele>123.190000</ele>
                <time>2013-03-23T06:51:42Z</time>
            </trkpt>
            <trkpt lon="101.014069" lat="12.916434">
                <ele>112.130000</ele>
                <time>2013-03-23T06:58:42Z</time>
            </trkpt>
            <trkpt lon="101.014534" lat="12.915969">
                <ele>114.050000</ele>
                <time>2013-03-23T06:59:12Z</time>
            </trkpt>
            <trkpt lon="101.015320" lat="12.916232">
                <ele>117.900000</ele>
                <time>2013-03-23T06:59:42Z</time>
            </trkpt>
            <trkpt lon="101.016342" lat="12.916148">
                <ele>119.820000</ele>
                <time>2013-03-23T07:00:12Z</time>
            </trkpt>
            <trkpt lon="101.017365" lat="12.915740">
                <ele>121.260000</ele>
                <time>2013-03-23T07:00:42Z</time>
            </trkpt>
            <trkpt lon="101.018745" lat="12.914284">
                <ele>127.030000</ele>
                <time>2013-03-23T07:01:42Z</time>
            </trkpt>
            <trkpt lon="101.019569" lat="12.913787">
                <ele>127.990000</ele>
                <time>2013-03-23T07:02:12Z</time>
            </trkpt>
            <trkpt lon="101.020447" lat="12.913614">
                <ele>130.400000</ele>
                <time>2013-03-23T07:02:42Z</time>
            </trkpt>
            <trkpt lon="101.020813" lat="12.912248">
                <ele>134.240000</ele>
                <time>2013-03-23T07:04:12Z</time>
            </trkpt>
            <trkpt lon="101.021164" lat="12.911720">
                <ele>135.200000</ele>
                <time>2013-03-23T07:04:42Z</time>
            </trkpt>
            <trkpt lon="101.021866" lat="12.911529">
                <ele>138.090000</ele>
                <time>2013-03-23T07:05:12Z</time>
            </trkpt>
            <trkpt lon="101.022125" lat="12.910966">
                <ele>141.930000</ele>
                <time>2013-03-23T07:05:42Z</time>
            </trkpt>
            <trkpt lon="101.022202" lat="12.910414">
                <ele>143.850000</ele>
                <time>2013-03-23T07:06:12Z</time>
            </trkpt>
            <trkpt lon="101.022224" lat="12.909606">
                <ele>145.300000</ele>
                <time>2013-03-23T07:06:42Z</time>
            </trkpt>
            <trkpt lon="101.022934" lat="12.909194">
                <ele>149.140000</ele>
                <time>2013-03-23T07:07:42Z</time>
            </trkpt>
            <trkpt lon="101.022858" lat="12.907249">
                <ele>149.620000</ele>
                <time>2013-03-23T07:08:42Z</time>
            </trkpt>
            <trkpt lon="101.023224" lat="12.905388">
                <ele>154.430000</ele>
                <time>2013-03-23T07:09:42Z</time>
            </trkpt>
            <trkpt lon="101.023735" lat="12.904341">
                <ele>155.870000</ele>
                <time>2013-03-23T07:10:12Z</time>
            </trkpt>
            <trkpt lon="101.024590" lat="12.903314">
                <ele>153.950000</ele>
                <time>2013-03-23T07:10:42Z</time>
            </trkpt>
            <trkpt lon="101.025536" lat="12.902628">
                <ele>156.350000</ele>
                <time>2013-03-23T07:11:12Z</time>
            </trkpt>
            <trkpt lon="101.026100" lat="12.902020">
                <ele>159.720000</ele>
                <time>2013-03-23T07:11:42Z</time>
            </trkpt>
            <trkpt lon="101.027008" lat="12.900720">
                <ele>171.250000</ele>
                <time>2013-03-23T07:13:12Z</time>
            </trkpt>
            <trkpt lon="101.026527" lat="12.900222">
                <ele>174.140000</ele>
                <time>2013-03-23T07:13:42Z</time>
            </trkpt>
            <trkpt lon="101.026321" lat="12.899677">
                <ele>174.620000</ele>
                <time>2013-03-23T07:14:12Z</time>
            </trkpt>
            <trkpt lon="101.025154" lat="12.899887">
                <ele>174.140000</ele>
                <time>2013-03-23T07:14:42Z</time>
            </trkpt>
            <trkpt lon="101.023201" lat="12.900688">
                <ele>164.520000</ele>
                <time>2013-03-23T07:15:42Z</time>
            </trkpt>
            <trkpt lon="101.023041" lat="12.900548">
                <ele>165.480000</ele>
                <time>2013-03-23T07:16:12Z</time>
            </trkpt>
            <trkpt lon="101.023041" lat="12.899916">
                <ele>165.960000</ele>
                <time>2013-03-23T07:16:42Z</time>
            </trkpt>
            <trkpt lon="101.023209" lat="12.899223">
                <ele>167.410000</ele>
                <time>2013-03-23T07:17:12Z</time>
            </trkpt>
            <trkpt lon="101.022896" lat="12.898652">
                <ele>169.330000</ele>
                <time>2013-03-23T07:17:42Z</time>
            </trkpt>
            <trkpt lon="101.021912" lat="12.898334">
                <ele>165.960000</ele>
                <time>2013-03-23T07:18:12Z</time>
            </trkpt>
            <trkpt lon="101.021538" lat="12.896544">
                <ele>173.660000</ele>
                <time>2013-03-23T07:19:42Z</time>
            </trkpt>
            <trkpt lon="101.021652" lat="12.896283">
                <ele>175.100000</ele>
                <time>2013-03-23T07:20:12Z</time>
            </trkpt>
            <trkpt lon="101.020439" lat="12.896920">
                <ele>175.580000</ele>
                <time>2013-03-23T07:21:12Z</time>
            </trkpt>
            <trkpt lon="101.019379" lat="12.897758">
                <ele>181.350000</ele>
                <time>2013-03-23T07:22:12Z</time>
            </trkpt>
            <trkpt lon="101.018417" lat="12.897813">
                <ele>178.940000</ele>
                <time>2013-03-23T07:24:42Z</time>
            </trkpt>
            <trkpt lon="101.019005" lat="12.897671">
                <ele>179.900000</ele>
                <time>2013-03-23T07:25:12Z</time>
            </trkpt>
            <trkpt lon="101.019356" lat="12.897736">
                <ele>180.380000</ele>
                <time>2013-03-23T07:25:42Z</time>
            </trkpt>
            <trkpt lon="101.019341" lat="12.897410">
                <ele>182.790000</ele>
                <time>2013-03-23T07:26:12Z</time>
            </trkpt>
            <trkpt lon="101.018745" lat="12.897369">
                <ele>186.150000</ele>
                <time>2013-03-23T07:26:42Z</time>
            </trkpt>
            <trkpt lon="101.018082" lat="12.897434">
                <ele>184.230000</ele>
                <time>2013-03-23T07:27:12Z</time>
            </trkpt>
            <trkpt lon="101.017731" lat="12.897043">
                <ele>186.630000</ele>
                <time>2013-03-23T07:27:42Z</time>
            </trkpt>
            <trkpt lon="101.016754" lat="12.897460">
                <ele>181.350000</ele>
                <time>2013-03-23T07:28:12Z</time>
            </trkpt>
            <trkpt lon="101.016235" lat="12.897224">
                <ele>182.790000</ele>
                <time>2013-03-23T07:28:42Z</time>
            </trkpt>
            <trkpt lon="101.016159" lat="12.896460">
                <ele>195.280000</ele>
                <time>2013-03-23T07:30:42Z</time>
            </trkpt>
            <trkpt lon="101.015602" lat="12.896076">
                <ele>196.250000</ele>
                <time>2013-03-23T07:32:12Z</time>
            </trkpt>
            <trkpt lon="101.015480" lat="12.895880">
                <ele>198.170000</ele>
                <time>2013-03-23T07:33:42Z</time>
            </trkpt>
            <trkpt lon="101.015816" lat="12.894942">
                <ele>228.930000</ele>
                <time>2013-03-23T07:46:42Z</time>
            </trkpt>
            <trkpt lon="101.016342" lat="12.894661">
                <ele>237.100000</ele>
                <time>2013-03-23T07:48:12Z</time>
            </trkpt>
            <trkpt lon="101.016396" lat="12.894476">
                <ele>240.950000</ele>
                <time>2013-03-23T07:48:42Z</time>
            </trkpt>
            <trkpt lon="101.016479" lat="12.894272">
                <ele>241.430000</ele>
                <time>2013-03-23T07:51:42Z</time>
            </trkpt>
            <trkpt lon="101.017204" lat="12.893899">
                <ele>235.180000</ele>
                <time>2013-03-23T07:52:12Z</time>
            </trkpt>
            <trkpt lon="101.017921" lat="12.893246">
                <ele>222.680000</ele>
                <time>2013-03-23T07:52:42Z</time>
            </trkpt>
            <trkpt lon="101.017807" lat="12.891298">
                <ele>204.900000</ele>
                <time>2013-03-23T07:53:42Z</time>
            </trkpt>
            <trkpt lon="101.018059" lat="12.890294">
                <ele>197.690000</ele>
                <time>2013-03-23T07:54:12Z</time>
            </trkpt>
            <trkpt lon="101.019211" lat="12.890010">
                <ele>193.360000</ele>
                <time>2013-03-23T07:54:42Z</time>
            </trkpt>
            <trkpt lon="101.020058" lat="12.890033">
                <ele>195.770000</ele>
                <time>2013-03-23T07:55:12Z</time>
            </trkpt>
            <trkpt lon="101.021225" lat="12.890216">
                <ele>193.360000</ele>
                <time>2013-03-23T07:55:42Z</time>
            </trkpt>
            <trkpt lon="101.021820" lat="12.889950">
                <ele>189.040000</ele>
                <time>2013-03-23T07:56:12Z</time>
            </trkpt>
            <trkpt lon="101.021515" lat="12.885887">
                <ele>190.480000</ele>
                <time>2013-03-23T07:58:12Z</time>
            </trkpt>
            <trkpt lon="101.021729" lat="12.884659">
                <ele>186.150000</ele>
                <time>2013-03-23T07:58:42Z</time>
            </trkpt>
            <trkpt lon="101.022057" lat="12.883973">
                <ele>184.230000</ele>
                <time>2013-03-23T07:59:12Z</time>
            </trkpt>
            <trkpt lon="101.023155" lat="12.883891">
                <ele>187.110000</ele>
                <time>2013-03-23T08:02:12Z</time>
            </trkpt>
            <trkpt lon="101.023117" lat="12.883874">
                <ele>186.150000</ele>
                <time>2013-03-23T08:04:17Z</time>
            </trkpt>
            <trkpt lon="101.023163" lat="12.883861">
                <ele>185.190000</ele>
                <time>2013-03-23T08:18:17Z</time>
            </trkpt>
            <trkpt lon="101.023033" lat="12.883952">
                <ele>185.190000</ele>
                <time>2013-03-23T08:25:17Z</time>
            </trkpt>
            <trkpt lon="101.022270" lat="12.883953">
                <ele>183.270000</ele>
                <time>2013-03-23T08:25:47Z</time>
            </trkpt>
            <trkpt lon="101.021111" lat="12.883613">
                <ele>176.060000</ele>
                <time>2013-03-23T08:26:17Z</time>
            </trkpt>
            <trkpt lon="101.020157" lat="12.882545">
                <ele>170.770000</ele>
                <time>2013-03-23T08:26:47Z</time>
            </trkpt>
            <trkpt lon="101.019554" lat="12.881690">
                <ele>163.080000</ele>
                <time>2013-03-23T08:27:17Z</time>
            </trkpt>
            <trkpt lon="101.019005" lat="12.881968">
                <ele>166.450000</ele>
                <time>2013-03-23T08:27:47Z</time>
            </trkpt>
            <trkpt lon="101.018456" lat="12.881620">
                <ele>163.080000</ele>
                <time>2013-03-23T08:28:17Z</time>
            </trkpt>
            <trkpt lon="101.017868" lat="12.880655">
                <ele>154.430000</ele>
                <time>2013-03-23T08:28:47Z</time>
            </trkpt>
            <trkpt lon="101.017845" lat="12.880054">
                <ele>155.870000</ele>
                <time>2013-03-23T08:29:17Z</time>
            </trkpt>
            <trkpt lon="101.017204" lat="12.880004">
                <ele>156.350000</ele>
                <time>2013-03-23T08:29:47Z</time>
            </trkpt>
            <trkpt lon="101.016922" lat="12.879654">
                <ele>156.350000</ele>
                <time>2013-03-23T08:30:17Z</time>
            </trkpt>
            <trkpt lon="101.017578" lat="12.879642">
                <ele>156.830000</ele>
                <time>2013-03-23T08:30:47Z</time>
            </trkpt>
            <trkpt lon="101.017441" lat="12.878990">
                <ele>156.830000</ele>
                <time>2013-03-23T08:31:17Z</time>
            </trkpt>
            <trkpt lon="101.016495" lat="12.878890">
                <ele>150.580000</ele>
                <time>2013-03-23T08:31:47Z</time>
            </trkpt>
            <trkpt lon="101.015816" lat="12.878429">
                <ele>143.850000</ele>
                <time>2013-03-23T08:32:17Z</time>
            </trkpt>
            <trkpt lon="101.015114" lat="12.878102">
                <ele>133.280000</ele>
                <time>2013-03-23T08:32:47Z</time>
            </trkpt>
            <trkpt lon="101.015022" lat="12.878534">
                <ele>124.150000</ele>
                <time>2013-03-23T08:33:17Z</time>
            </trkpt>
            <trkpt lon="101.015396" lat="12.879281">
                <ele>121.260000</ele>
                <time>2013-03-23T08:33:47Z</time>
            </trkpt>
            <trkpt lon="101.015404" lat="12.879718">
                <ele>114.050000</ele>
                <time>2013-03-23T08:34:17Z</time>
            </trkpt>
            <trkpt lon="101.014442" lat="12.879238">
                <ele>121.260000</ele>
                <time>2013-03-23T08:35:17Z</time>
            </trkpt>
            <trkpt lon="101.013618" lat="12.878921">
                <ele>122.710000</ele>
                <time>2013-03-23T08:35:47Z</time>
            </trkpt>
            <trkpt lon="101.012566" lat="12.878769">
                <ele>122.220000</ele>
                <time>2013-03-23T08:36:17Z</time>
            </trkpt>
            <trkpt lon="101.012436" lat="12.880304">
                <ele>127.990000</ele>
                <time>2013-03-23T08:37:47Z</time>
            </trkpt>
            <trkpt lon="101.011971" lat="12.880615">
                <ele>127.510000</ele>
                <time>2013-03-23T08:38:17Z</time>
            </trkpt>
            <trkpt lon="101.012199" lat="12.881021">
                <ele>132.800000</ele>
                <time>2013-03-23T08:38:47Z</time>
            </trkpt>
            <trkpt lon="101.012192" lat="12.881108">
                <ele>132.320000</ele>
                <time>2013-03-23T08:39:17Z</time>
            </trkpt>
            <trkpt lon="101.011978" lat="12.880830">
                <ele>129.430000</ele>
                <time>2013-03-23T08:40:17Z</time>
            </trkpt>
            <trkpt lon="101.012398" lat="12.880431">
                <ele>127.510000</ele>
                <time>2013-03-23T08:41:17Z</time>
            </trkpt>
            <trkpt lon="101.012421" lat="12.879729">
                <ele>126.070000</ele>
                <time>2013-03-23T08:41:47Z</time>
            </trkpt>
            <trkpt lon="101.012589" lat="12.878842">
                <ele>122.710000</ele>
                <time>2013-03-23T08:42:17Z</time>
            </trkpt>
            <trkpt lon="101.011826" lat="12.877848">
                <ele>113.090000</ele>
                <time>2013-03-23T08:42:47Z</time>
            </trkpt>
            <trkpt lon="101.011345" lat="12.876898">
                <ele>109.250000</ele>
                <time>2013-03-23T08:43:17Z</time>
            </trkpt>
            <trkpt lon="101.010643" lat="12.876124">
                <ele>106.840000</ele>
                <time>2013-03-23T08:43:47Z</time>
            </trkpt>
            <trkpt lon="101.009506" lat="12.875927">
                <ele>106.360000</ele>
                <time>2013-03-23T08:44:17Z</time>
            </trkpt>
            <trkpt lon="101.008575" lat="12.875254">
                <ele>103.480000</ele>
                <time>2013-03-23T08:44:47Z</time>
            </trkpt>
            <trkpt lon="101.007751" lat="12.874786">
                <ele>96.270000</ele>
                <time>2013-03-23T08:45:17Z</time>
            </trkpt>
            <trkpt lon="101.007103" lat="12.875352">
                <ele>101.560000</ele>
                <time>2013-03-23T08:45:47Z</time>
            </trkpt>
            <trkpt lon="101.005959" lat="12.876081">
                <ele>100.110000</ele>
                <time>2013-03-23T08:46:17Z</time>
            </trkpt>
            <trkpt lon="101.005043" lat="12.876348">
                <ele>98.670000</ele>
                <time>2013-03-23T08:46:47Z</time>
            </trkpt>
            <trkpt lon="101.004196" lat="12.875214">
                <ele>95.790000</ele>
                <time>2013-03-23T08:47:17Z</time>
            </trkpt>
            <trkpt lon="101.003761" lat="12.872232">
                <ele>92.900000</ele>
                <time>2013-03-23T08:48:17Z</time>
            </trkpt>
            <trkpt lon="101.002808" lat="12.871372">
                <ele>90.500000</ele>
                <time>2013-03-23T08:48:47Z</time>
            </trkpt>
            <trkpt lon="101.001144" lat="12.872190">
                <ele>87.620000</ele>
                <time>2013-03-23T08:49:17Z</time>
            </trkpt>
            <trkpt lon="100.999672" lat="12.871402">
                <ele>85.690000</ele>
                <time>2013-03-23T08:49:47Z</time>
            </trkpt>
            <trkpt lon="100.998543" lat="12.871367">
                <ele>84.250000</ele>
                <time>2013-03-23T08:50:17Z</time>
            </trkpt>
            <trkpt lon="100.998589" lat="12.869816">
                <ele>82.330000</ele>
                <time>2013-03-23T08:50:47Z</time>
            </trkpt>
            <trkpt lon="100.997772" lat="12.868652">
                <ele>79.450000</ele>
                <time>2013-03-23T08:51:17Z</time>
            </trkpt>
            <trkpt lon="100.997559" lat="12.868581">
                <ele>78.000000</ele>
                <time>2013-03-23T08:51:47Z</time>
            </trkpt>
            <trkpt lon="100.997742" lat="12.868636">
                <ele>78.480000</ele>
                <time>2013-03-23T08:52:17Z</time>
            </trkpt>
            <trkpt lon="100.994919" lat="12.868276">
                <ele>74.640000</ele>
                <time>2013-03-23T08:53:17Z</time>
            </trkpt>
            <trkpt lon="100.994080" lat="12.868952">
                <ele>74.160000</ele>
                <time>2013-03-23T08:53:47Z</time>
            </trkpt>
            <trkpt lon="100.993629" lat="12.872431">
                <ele>75.600000</ele>
                <time>2013-03-23T08:55:47Z</time>
            </trkpt>
            <trkpt lon="100.991653" lat="12.872117">
                <ele>72.720000</ele>
                <time>2013-03-23T08:56:47Z</time>
            </trkpt>
            <trkpt lon="100.991478" lat="12.872988">
                <ele>72.240000</ele>
                <time>2013-03-23T08:57:17Z</time>
            </trkpt>
            <trkpt lon="100.991653" lat="12.873181">
                <ele>72.240000</ele>
                <time>2013-03-23T08:57:47Z</time>
            </trkpt>
            <trkpt lon="100.991760" lat="12.873896">
                <ele>73.680000</ele>
                <time>2013-03-23T08:58:17Z</time>
            </trkpt>
            <trkpt lon="100.991852" lat="12.874925">
                <ele>74.640000</ele>
                <time>2013-03-23T08:58:47Z</time>
            </trkpt>
            <trkpt lon="100.990959" lat="12.875300">
                <ele>73.200000</ele>
                <time>2013-03-23T08:59:17Z</time>
            </trkpt>
            <trkpt lon="100.991127" lat="12.876511">
                <ele>72.720000</ele>
                <time>2013-03-23T08:59:47Z</time>
            </trkpt>
            <trkpt lon="100.990143" lat="12.876378">
                <ele>72.240000</ele>
                <time>2013-03-23T09:00:17Z</time>
            </trkpt>
            <trkpt lon="100.988739" lat="12.876119">
                <ele>71.270000</ele>
                <time>2013-03-23T09:00:47Z</time>
            </trkpt>
            <trkpt lon="100.987228" lat="12.875113">
                <ele>67.430000</ele>
                <time>2013-03-23T09:01:17Z</time>
            </trkpt>
            <trkpt lon="100.986694" lat="12.874133">
                <ele>66.470000</ele>
                <time>2013-03-23T09:01:47Z</time>
            </trkpt>
            <trkpt lon="100.985001" lat="12.874283">
                <ele>63.100000</ele>
                <time>2013-03-23T09:02:47Z</time>
            </trkpt>
            <trkpt lon="100.985191" lat="12.874689">
                <ele>62.620000</ele>
                <time>2013-03-23T09:03:47Z</time>
            </trkpt>
            <trkpt lon="100.985146" lat="12.875674">
                <ele>63.100000</ele>
                <time>2013-03-23T09:05:47Z</time>
            </trkpt>
            <trkpt lon="100.985497" lat="12.876455">
                <ele>62.620000</ele>
                <time>2013-03-23T09:06:17Z</time>
            </trkpt>
            <trkpt lon="100.986176" lat="12.877440">
                <ele>63.100000</ele>
                <time>2013-03-23T09:06:47Z</time>
            </trkpt>
            <trkpt lon="100.986771" lat="12.878620">
                <ele>64.070000</ele>
                <time>2013-03-23T09:07:17Z</time>
            </trkpt>
            <trkpt lon="100.987465" lat="12.879391">
                <ele>66.470000</ele>
                <time>2013-03-23T09:07:47Z</time>
            </trkpt>
            <trkpt lon="100.987762" lat="12.880287">
                <ele>64.550000</ele>
                <time>2013-03-23T09:08:17Z</time>
            </trkpt>
            <trkpt lon="100.986969" lat="12.880499">
                <ele>62.140000</ele>
                <time>2013-03-23T09:08:47Z</time>
            </trkpt>
            <trkpt lon="100.986259" lat="12.881199">
                <ele>60.220000</ele>
                <time>2013-03-23T09:09:17Z</time>
            </trkpt>
            <trkpt lon="100.984108" lat="12.881731">
                <ele>59.260000</ele>
                <time>2013-03-23T09:10:17Z</time>
            </trkpt>
            <trkpt lon="100.983185" lat="12.880999">
                <ele>60.220000</ele>
                <time>2013-03-23T09:10:47Z</time>
            </trkpt>
            <trkpt lon="100.981697" lat="12.881056">
                <ele>54.450000</ele>
                <time>2013-03-23T09:11:17Z</time>
            </trkpt>
            <trkpt lon="100.980659" lat="12.881855">
                <ele>56.370000</ele>
                <time>2013-03-23T09:11:47Z</time>
            </trkpt>
            <trkpt lon="100.979637" lat="12.880908">
                <ele>55.410000</ele>
                <time>2013-03-23T09:12:17Z</time>
            </trkpt>
            <trkpt lon="100.980255" lat="12.879984">
                <ele>53.490000</ele>
                <time>2013-03-23T09:12:47Z</time>
            </trkpt>
            <trkpt lon="100.979309" lat="12.879878">
                <ele>50.610000</ele>
                <time>2013-03-23T09:14:47Z</time>
            </trkpt>
            <trkpt lon="100.979141" lat="12.879639">
                <ele>52.050000</ele>
                <time>2013-03-23T09:15:47Z</time>
            </trkpt>
            <trkpt lon="100.978783" lat="12.879575">
                <ele>52.530000</ele>
                <time>2013-03-23T09:16:17Z</time>
            </trkpt>
            <trkpt lon="100.977783" lat="12.880478">
                <ele>53.490000</ele>
                <time>2013-03-23T09:17:17Z</time>
            </trkpt>
            <trkpt lon="100.976860" lat="12.879754">
                <ele>53.490000</ele>
                <time>2013-03-23T09:17:47Z</time>
            </trkpt>
            <trkpt lon="100.975746" lat="12.878519">
                <ele>52.050000</ele>
                <time>2013-03-23T09:18:17Z</time>
            </trkpt>
            <trkpt lon="100.975471" lat="12.879655">
                <ele>51.090000</ele>
                <time>2013-03-23T09:18:47Z</time>
            </trkpt>
            <trkpt lon="100.976364" lat="12.880468">
                <ele>52.050000</ele>
                <time>2013-03-23T09:19:17Z</time>
            </trkpt>
            <trkpt lon="100.976250" lat="12.881886">
                <ele>53.010000</ele>
                <time>2013-03-23T09:19:47Z</time>
            </trkpt>
            <trkpt lon="100.975433" lat="12.882505">
                <ele>52.530000</ele>
                <time>2013-03-23T09:20:17Z</time>
            </trkpt>
            <trkpt lon="100.973434" lat="12.882272">
                <ele>51.570000</ele>
                <time>2013-03-23T09:21:17Z</time>
            </trkpt>
            <trkpt lon="100.972351" lat="12.882181">
                <ele>50.130000</ele>
                <time>2013-03-23T09:21:47Z</time>
            </trkpt>
            <trkpt lon="100.972183" lat="12.881275">
                <ele>49.650000</ele>
                <time>2013-03-23T09:22:17Z</time>
            </trkpt>
            <trkpt lon="100.971146" lat="12.880399">
                <ele>49.160000</ele>
                <time>2013-03-23T09:22:47Z</time>
            </trkpt>
            <trkpt lon="100.970993" lat="12.879443">
                <ele>48.200000</ele>
                <time>2013-03-23T09:23:17Z</time>
            </trkpt>
            <trkpt lon="100.972076" lat="12.879205">
                <ele>48.680000</ele>
                <time>2013-03-23T09:23:47Z</time>
            </trkpt>
            <trkpt lon="100.972420" lat="12.877902">
                <ele>49.160000</ele>
                <time>2013-03-23T09:24:17Z</time>
            </trkpt>
            <trkpt lon="100.969963" lat="12.877277">
                <ele>46.760000</ele>
                <time>2013-03-23T09:25:17Z</time>
            </trkpt>
            <trkpt lon="100.969688" lat="12.878324">
                <ele>46.280000</ele>
                <time>2013-03-23T09:25:47Z</time>
            </trkpt>
            <trkpt lon="100.969864" lat="12.877790">
                <ele>47.240000</ele>
                <time>2013-03-23T09:26:17Z</time>
            </trkpt>
            <trkpt lon="100.968933" lat="12.877332">
                <ele>47.240000</ele>
                <time>2013-03-23T09:26:47Z</time>
            </trkpt>
            <trkpt lon="100.967201" lat="12.877283">
                <ele>45.800000</ele>
                <time>2013-03-23T09:27:17Z</time>
            </trkpt>
            <trkpt lon="100.965729" lat="12.877467">
                <ele>44.360000</ele>
                <time>2013-03-23T09:27:47Z</time>
            </trkpt>
            <trkpt lon="100.965927" lat="12.878604">
                <ele>45.320000</ele>
                <time>2013-03-23T09:28:17Z</time>
            </trkpt>
            <trkpt lon="100.966484" lat="12.879898">
                <ele>45.800000</ele>
                <time>2013-03-23T09:28:47Z</time>
            </trkpt>
            <trkpt lon="100.966682" lat="12.881206">
                <ele>45.800000</ele>
                <time>2013-03-23T09:29:17Z</time>
            </trkpt>
            <trkpt lon="100.967148" lat="12.882435">
                <ele>46.760000</ele>
                <time>2013-03-23T09:29:47Z</time>
            </trkpt>
            <trkpt lon="100.967834" lat="12.883549">
                <ele>47.240000</ele>
                <time>2013-03-23T09:30:17Z</time>
            </trkpt>
            <trkpt lon="100.967155" lat="12.884567">
                <ele>48.200000</ele>
                <time>2013-03-23T09:30:47Z</time>
            </trkpt>
            <trkpt lon="100.966789" lat="12.884952">
                <ele>46.760000</ele>
                <time>2013-03-23T09:32:17Z</time>
            </trkpt>
            <trkpt lon="100.966888" lat="12.885865">
                <ele>46.280000</ele>
                <time>2013-03-23T09:38:47Z</time>
            </trkpt>
            <trkpt lon="100.966812" lat="12.885345">
                <ele>46.760000</ele>
                <time>2013-03-23T09:39:47Z</time>
            </trkpt>
            <trkpt lon="100.967094" lat="12.884661">
                <ele>46.280000</ele>
                <time>2013-03-23T09:40:17Z</time>
            </trkpt>
            <trkpt lon="100.967834" lat="12.883711">
                <ele>47.240000</ele>
                <time>2013-03-23T09:40:47Z</time>
            </trkpt>
            <trkpt lon="100.968666" lat="12.883435">
                <ele>47.720000</ele>
                <time>2013-03-23T09:41:17Z</time>
            </trkpt>
            <trkpt lon="100.970688" lat="12.886173">
                <ele>53.970000</ele>
                <time>2013-03-23T09:42:47Z</time>
            </trkpt>
            <trkpt lon="100.970680" lat="12.886880">
                <ele>54.930000</ele>
                <time>2013-03-23T09:43:17Z</time>
            </trkpt>
            <trkpt lon="100.970551" lat="12.887864">
                <ele>55.410000</ele>
                <time>2013-03-23T09:43:47Z</time>
            </trkpt>
            <trkpt lon="100.970764" lat="12.889008">
                <ele>55.890000</ele>
                <time>2013-03-23T09:44:17Z</time>
            </trkpt>
            <trkpt lon="100.970985" lat="12.890190">
                <ele>55.890000</ele>
                <time>2013-03-23T09:44:47Z</time>
            </trkpt>
            <trkpt lon="100.971077" lat="12.890718">
                <ele>53.490000</ele>
                <time>2013-03-23T09:45:17Z</time>
            </trkpt>
            <trkpt lon="100.971436" lat="12.891273">
                <ele>53.970000</ele>
                <time>2013-03-23T09:45:47Z</time>
            </trkpt>
            <trkpt lon="100.974350" lat="12.893982">
                <ele>56.860000</ele>
                <time>2013-03-23T09:48:17Z</time>
            </trkpt>
            <trkpt lon="100.975082" lat="12.894550">
                <ele>57.340000</ele>
                <time>2013-03-23T09:48:47Z</time>
            </trkpt>
            <trkpt lon="100.975616" lat="12.894119">
                <ele>60.700000</ele>
                <time>2013-03-23T09:49:17Z</time>
            </trkpt>
            <trkpt lon="100.976280" lat="12.894583">
                <ele>61.660000</ele>
                <time>2013-03-23T09:49:47Z</time>
            </trkpt>
            <trkpt lon="100.977356" lat="12.896643">
                <ele>60.220000</ele>
                <time>2013-03-23T09:50:47Z</time>
            </trkpt>
            <trkpt lon="100.977440" lat="12.897578">
                <ele>62.140000</ele>
                <time>2013-03-23T09:51:17Z</time>
            </trkpt>
            <trkpt lon="100.976883" lat="12.898702">
                <ele>62.140000</ele>
                <time>2013-03-23T09:52:17Z</time>
            </trkpt>
            <trkpt lon="100.976570" lat="12.899700">
                <ele>64.550000</ele>
                <time>2013-03-23T09:52:47Z</time>
            </trkpt>
            <trkpt lon="100.975883" lat="12.900370">
                <ele>65.990000</ele>
                <time>2013-03-23T09:53:17Z</time>
            </trkpt>
            <trkpt lon="100.974754" lat="12.900877">
                <ele>65.030000</ele>
                <time>2013-03-23T09:53:47Z</time>
            </trkpt>
            <trkpt lon="100.973221" lat="12.900945">
                <ele>64.550000</ele>
                <time>2013-03-23T09:54:17Z</time>
            </trkpt>
            <trkpt lon="100.972771" lat="12.901547">
                <ele>66.470000</ele>
                <time>2013-03-23T09:54:47Z</time>
            </trkpt>
            <trkpt lon="100.973015" lat="12.902386">
                <ele>70.310000</ele>
                <time>2013-03-23T09:55:17Z</time>
            </trkpt>
            <trkpt lon="100.972946" lat="12.903190">
                <ele>73.200000</ele>
                <time>2013-03-23T09:55:47Z</time>
            </trkpt>
            <trkpt lon="100.972839" lat="12.904013">
                <ele>75.600000</ele>
                <time>2013-03-23T09:56:17Z</time>
            </trkpt>
            <trkpt lon="100.973373" lat="12.904596">
                <ele>77.520000</ele>
                <time>2013-03-23T09:56:47Z</time>
            </trkpt>
            <trkpt lon="100.974129" lat="12.905375">
                <ele>78.480000</ele>
                <time>2013-03-23T09:57:17Z</time>
            </trkpt>
            <trkpt lon="100.974274" lat="12.906333">
                <ele>78.970000</ele>
                <time>2013-03-23T09:57:47Z</time>
            </trkpt>
            <trkpt lon="100.973557" lat="12.906143">
                <ele>80.890000</ele>
                <time>2013-03-23T10:32:33Z</time>
            </trkpt>
        </trkseg>
    </trk>
</gpx>